LICA/SUF METAR and TAF weather

Enter ICAO airport designator
Station Type Date Time Source
LICA METAR 2019/11/22 00:50 UTC NOAA

LICA 220050Z 07006KT 9999 FEW020 06/05 Q1015


Station Type Date Time Source
LICA Decoded METAR 2019/11/22 00:50 UTC NOAA

Lamezia Terme, Italy (LICA) 38-54N 016-15E
Nov 21, 2019 - 07:50 PM EST / 2019.11.22 0050 UTC
Wind: from the ENE (070 degrees) at 7 MPH (6 KT):0
Visibility: greater than 7 mile(s):0
Sky conditions: mostly clear
Temperature: 42 F (6 C)
Dew Point: 41 F (5 C)
Relative Humidity: 93%
Pressure (altimeter): 29.97 in. Hg (1015 hPa)
ob: LICA 220050Z 07006KT 9999 FEW020 06/05 Q1015
cycle: 1

Station Type Date Time Source
LICA TAF 2019/11/21 18:21 UTC NOAA

TAF LICA 211700Z 2118/2218 VRB06KT 9999 SCT020

Example: see airport list